createdAt,value
2022-11-26T00:02:26.365Z,73.17
2022-11-26T00:04:54.630Z,64.40
2022-11-26T00:07:26.523Z,66.30
2022-11-26T00:09:55.136Z,69.57
2022-11-26T00:12:28.711Z,61.13
2022-11-26T00:14:55.778Z,67.63
2022-11-26T00:17:23.082Z,62.00
2022-11-26T00:19:49.826Z,58.63
2022-11-26T00:22:23.338Z,65.07
2022-11-26T00:24:50.453Z,60.10
2022-11-26T00:27:17.350Z,51.80
2022-11-26T00:29:44.143Z,52.53
2022-11-26T00:32:37.071Z,75.20
2022-11-26T00:35:03.893Z,65.90
2022-11-26T00:37:38.854Z,75.00
2022-11-26T00:40:06.460Z,49.93
2022-11-26T00:42:33.245Z,54.13
2022-11-26T00:44:59.924Z,49.90
2022-11-26T00:47:26.617Z,63.67
2022-11-26T00:49:53.700Z,62.20
2022-11-26T00:52:34.512Z,59.90
2022-11-26T00:55:06.448Z,52.97
2022-11-26T00:57:33.217Z,57.27
2022-11-26T01:00:00.330Z,63.03
2022-11-26T01:02:27.130Z,66.70
2022-11-26T01:04:54.388Z,65.73
2022-11-26T01:07:21.172Z,68.00
2022-11-26T01:09:48.498Z,74.53
2022-11-26T01:12:15.607Z,73.53
2022-11-26T01:14:42.698Z,68.77
2022-11-26T01:17:11.897Z,71.57
2022-11-26T01:19:38.569Z,70.37
2022-11-26T01:22:05.365Z,78.23
2022-11-26T01:24:32.172Z,68.60
2022-11-26T01:26:59.038Z,59.87
2022-11-26T01:29:25.769Z,68.50
2022-11-26T01:31:52.674Z,79.50
2022-11-26T01:34:19.432Z,59.67
2022-11-26T01:36:46.183Z,60.80
2022-11-26T01:39:19.639Z,67.00
2022-11-26T01:41:57.258Z,71.00
2022-11-26T01:44:30.694Z,76.43
2022-11-26T01:46:58.653Z,71.60
2022-11-26T01:49:30.489Z,69.90
2022-11-26T01:52:15.746Z,80.87
2022-11-26T01:54:44.291Z,66.93
2022-11-26T01:57:20.605Z,66.83
2022-11-26T01:59:52.849Z,83.87
2022-11-26T02:02:21.966Z,61.87
2022-11-26T02:05:09.556Z,73.63
2022-11-26T02:07:36.930Z,57.67
2022-11-26T02:10:04.824Z,73.63
2022-11-26T02:12:32.184Z,60.83
2022-11-26T02:14:59.035Z,74.37
2022-11-26T02:17:25.692Z,68.93
2022-11-26T02:20:29.714Z,71.93
2022-11-26T02:22:59.216Z,61.07
2022-11-26T02:25:44.735Z,67.70
2022-11-26T02:28:39.683Z,58.00
2022-11-26T02:31:16.048Z,53.20
2022-11-26T02:33:58.325Z,59.97
2022-11-26T02:36:46.925Z,57.10
2022-11-26T02:39:15.836Z,60.70
2022-11-26T02:41:45.091Z,49.33
2022-11-26T02:44:13.790Z,54.83
2022-11-26T02:46:41.816Z,77.27
2022-11-26T02:49:12.531Z,79.83
2022-11-26T02:51:40.859Z,67.80
2022-11-26T02:54:09.811Z,66.40
2022-11-26T02:56:37.887Z,68.47
2022-11-26T02:59:05.701Z,62.17
2022-11-26T03:01:46.799Z,54.63
2022-11-26T03:04:23.119Z,57.37
2022-11-26T03:06:51.651Z,78.87
2022-11-26T03:09:18.609Z,52.73
2022-11-26T03:11:45.387Z,50.60
2022-11-26T03:14:12.167Z,56.43
2022-11-26T03:16:38.948Z,49.97
2022-11-26T03:19:05.809Z,62.87
2022-11-26T03:21:33.541Z,57.70
2022-11-26T03:24:01.311Z,68.27
2022-11-26T03:26:28.019Z,70.70
2022-11-26T03:28:54.703Z,54.07
2022-11-26T03:31:21.538Z,68.00
2022-11-26T03:33:48.293Z,50.03
2022-11-26T03:36:15.017Z,65.43
2022-11-26T03:38:41.756Z,66.30
2022-11-26T03:41:08.424Z,65.97
2022-11-26T03:43:35.175Z,51.00
2022-11-26T03:46:01.961Z,55.77
2022-11-26T03:48:28.696Z,57.27
2022-11-26T03:50:55.449Z,51.87
2022-11-26T03:53:22.184Z,61.77
2022-11-26T03:55:49.332Z,61.30
2022-11-26T03:58:16.072Z,53.87
2022-11-26T04:00:42.842Z,60.97
2022-11-26T04:03:09.559Z,64.23
2022-11-26T04:05:36.350Z,57.83
2022-11-26T04:08:03.459Z,58.43
2022-11-26T04:10:30.231Z,49.83
2022-11-26T04:12:56.992Z,51.20
2022-11-26T04:15:23.926Z,53.27
2022-11-26T04:17:50.687Z,66.67
2022-11-26T04:20:17.570Z,57.53
2022-11-26T04:22:44.315Z,64.43
2022-11-26T04:25:11.110Z,53.80
2022-11-26T04:27:38.253Z,59.07
2022-11-26T04:30:07.839Z,59.93
2022-11-26T04:32:34.661Z,79.63
2022-11-26T04:35:01.356Z,50.37
2022-11-26T04:37:28.517Z,55.33
2022-11-26T04:39:55.260Z,55.70
2022-11-26T04:42:21.976Z,52.40
2022-11-26T04:44:48.637Z,61.13
2022-11-26T04:47:15.395Z,50.40
2022-11-26T04:49:42.137Z,50.17
2022-11-26T04:52:08.835Z,57.80
2022-11-26T04:54:35.806Z,53.67
2022-11-26T04:57:02.947Z,59.07
2022-11-26T04:59:29.617Z,70.60
2022-11-26T05:01:56.363Z,111.97
2022-11-26T05:04:23.087Z,57.23
2022-11-26T05:06:49.825Z,53.70
2022-11-26T05:09:16.540Z,52.80
2022-11-26T05:11:43.269Z,63.27
2022-11-26T05:14:10.015Z,64.93
2022-11-26T05:16:36.856Z,53.93
2022-11-26T05:19:03.831Z,57.13
2022-11-26T05:21:30.612Z,51.33
2022-11-26T05:23:57.317Z,41.77
2022-11-26T05:26:24.161Z,57.93
2022-11-26T05:28:50.977Z,62.27
2022-11-26T05:31:17.744Z,67.07
2022-11-26T05:33:44.536Z,62.00
2022-11-26T05:36:11.220Z,55.40
2022-11-26T05:38:37.925Z,53.67
2022-11-26T05:41:04.689Z,54.43
2022-11-26T05:43:31.477Z,54.87
2022-11-26T05:46:05.286Z,55.57
2022-11-26T05:48:32.150Z,60.37
2022-11-26T05:51:00.712Z,53.50
2022-11-26T05:53:28.161Z,59.57
2022-11-26T05:55:54.877Z,56.97
2022-11-26T05:58:21.544Z,50.33
2022-11-26T06:00:48.258Z,48.23
2022-11-26T06:03:19.795Z,50.40
2022-11-26T06:05:47.312Z,58.37
2022-11-26T06:08:14.040Z,54.30
2022-11-26T06:10:42.972Z,54.00
2022-11-26T06:13:10.178Z,60.63
2022-11-26T06:15:36.915Z,53.90
2022-11-26T06:18:03.797Z,52.30
2022-11-26T06:20:30.598Z,58.20
2022-11-26T06:22:57.321Z,66.73
2022-11-26T06:25:24.130Z,54.77
2022-11-26T06:27:52.148Z,53.73
2022-11-26T06:30:19.239Z,79.27
2022-11-26T06:32:45.957Z,51.23
2022-11-26T06:35:13.114Z,64.83
2022-11-26T06:37:40.261Z,55.13
2022-11-26T06:40:08.325Z,65.70
2022-11-26T06:42:35.085Z,54.50
2022-11-26T06:45:02.079Z,56.37
2022-11-26T06:47:28.830Z,65.47
2022-11-26T06:49:55.547Z,57.90
2022-11-26T06:52:22.258Z,58.90
2022-11-26T06:54:50.575Z,69.63
2022-11-26T06:57:17.319Z,63.73
2022-11-26T06:59:44.054Z,76.53
2022-11-26T07:02:11.426Z,81.83
2022-11-26T07:04:38.476Z,70.00
2022-11-26T07:07:05.428Z,82.10
2022-11-26T07:09:32.172Z,72.63
2022-11-26T07:11:58.971Z,65.80
2022-11-26T07:14:25.763Z,91.53
2022-11-26T07:16:52.608Z,84.23
2022-11-26T07:19:19.318Z,87.90
2022-11-26T07:21:46.072Z,85.97
2022-11-26T07:24:13.204Z,104.80
2022-11-26T07:26:39.959Z,91.53
2022-11-26T07:29:07.132Z,92.50
2022-11-26T07:31:34.237Z,97.23
2022-11-26T07:34:01.046Z,125.67
2022-11-26T07:36:29.891Z,97.33
2022-11-26T07:38:58.376Z,101.50
2022-11-26T07:41:26.701Z,98.33
2022-11-26T07:43:53.674Z,101.70
2022-11-26T07:46:23.574Z,110.43
2022-11-26T07:48:50.765Z,106.30
2022-11-26T07:51:23.600Z,109.63
2022-11-26T07:53:51.248Z,100.20
2022-11-26T07:56:18.817Z,87.00
2022-11-26T07:58:45.832Z,117.03
2022-11-26T08:01:15.862Z,102.27
2022-11-26T08:03:45.926Z,120.10
2022-11-26T08:06:16.458Z,119.80
2022-11-26T08:08:43.316Z,117.30
2022-11-26T08:11:24.239Z,127.40
2022-11-26T08:14:20.436Z,109.93
2022-11-26T08:16:47.246Z,109.13
2022-11-26T08:19:15.553Z,108.40
2022-11-26T08:21:42.524Z,138.17
2022-11-26T08:24:15.566Z,150.23
2022-11-26T08:26:44.473Z,141.77
2022-11-26T08:29:11.808Z,128.07
2022-11-26T08:31:45.134Z,157.13
2022-11-26T08:34:15.363Z,131.20
2022-11-26T08:36:42.497Z,165.00
2022-11-26T08:39:17.557Z,144.10
2022-11-26T08:41:50.278Z,136.80
2022-11-26T08:44:19.298Z,134.80
2022-11-26T08:46:46.098Z,150.43
2022-11-26T08:49:14.857Z,139.37
2022-11-26T08:51:42.221Z,127.20
2022-11-26T08:54:09.380Z,117.17
2022-11-26T08:56:36.483Z,133.77
2022-11-26T08:59:03.643Z,132.60
2022-11-26T09:01:32.734Z,134.37
2022-11-26T09:04:01.621Z,138.87
2022-11-26T09:06:30.116Z,127.73
2022-11-26T09:09:12.705Z,141.27
2022-11-26T09:11:48.512Z,147.50
2022-11-26T09:14:17.661Z,119.27
2022-11-26T09:16:45.004Z,116.93
2022-11-26T09:19:13.380Z,130.70
2022-11-26T09:21:40.500Z,112.80
2022-11-26T09:24:07.674Z,110.97
2022-11-26T09:26:34.968Z,121.63
2022-11-26T09:29:01.979Z,118.20
2022-11-26T09:31:28.869Z,101.33
2022-11-26T09:33:57.281Z,100.27
2022-11-26T09:36:24.183Z,98.80
2022-11-26T09:38:57.340Z,107.57
2022-11-26T09:41:42.631Z,99.43
2022-11-26T09:45:20.706Z,82.03
2022-11-26T09:47:52.068Z,91.23
2022-11-26T09:50:28.685Z,104.23
2022-11-26T09:53:13.243Z,104.27
2022-11-26T09:55:41.925Z,103.70
2022-11-26T09:58:45.404Z,97.23
2022-11-26T10:01:18.408Z,104.23
2022-11-26T10:03:45.318Z,93.87
2022-11-26T10:06:35.151Z,97.37
2022-11-26T10:09:04.971Z,103.87
2022-11-26T10:11:55.761Z,93.73
2022-11-26T10:14:51.258Z,94.80
2022-11-26T10:17:42.410Z,91.80
2022-11-26T10:20:37.572Z,87.37
2022-11-26T10:23:12.924Z,68.83
2022-11-26T10:26:04.770Z,86.03
2022-11-26T10:28:45.465Z,78.33
2022-11-26T10:31:23.336Z,73.23
2022-11-26T10:33:55.121Z,85.23
2022-11-26T10:36:44.458Z,65.20
2022-11-26T10:39:15.309Z,68.00
2022-11-26T10:41:42.652Z,57.47
2022-11-26T10:44:34.632Z,69.27
2022-11-26T10:47:23.751Z,57.17
2022-11-26T10:49:52.553Z,51.37
2022-11-26T10:52:24.784Z,51.03
2022-11-26T10:55:19.652Z,55.93
2022-11-26T10:57:55.106Z,43.47
2022-11-26T11:00:36.963Z,64.93
2022-11-26T11:03:44.991Z,59.90
2022-11-26T11:06:21.270Z,49.90
2022-11-26T11:08:50.102Z,62.20
2022-11-26T11:11:22.363Z,51.30
2022-11-26T11:13:49.575Z,55.33
2022-11-26T11:16:30.539Z,47.80
2022-11-26T11:19:00.475Z,44.93
2022-11-26T11:21:37.954Z,50.20
2022-11-26T11:24:13.805Z,53.83
2022-11-26T11:26:45.907Z,42.80
2022-11-26T11:29:42.291Z,45.23
2022-11-26T11:32:38.834Z,44.00
2022-11-26T11:35:23.984Z,53.73
2022-11-26T11:37:55.956Z,47.77
2022-11-26T11:40:27.489Z,47.93
2022-11-26T11:43:03.087Z,47.17
2022-11-26T11:45:42.743Z,50.10
2022-11-26T11:48:18.773Z,51.70
2022-11-26T11:50:57.867Z,53.83
2022-11-26T11:53:41.863Z,48.43
2022-11-26T11:56:44.022Z,51.03
2022-11-26T11:59:19.533Z,52.70
2022-11-26T12:01:57.163Z,59.93
2022-11-26T12:04:29.474Z,43.43
2022-11-26T12:07:14.259Z,47.23
2022-11-26T12:10:16.595Z,45.87
2022-11-26T12:12:50.716Z,45.63
2022-11-26T12:15:33.721Z,40.70
2022-11-26T12:18:14.534Z,59.07
2022-11-26T12:20:57.126Z,41.90
2022-11-26T12:23:43.808Z,43.37
2022-11-26T12:26:22.374Z,34.33
2022-11-26T12:29:06.903Z,43.43
2022-11-26T12:31:41.778Z,34.97
2022-11-26T12:34:12.972Z,57.47
2022-11-26T12:37:02.181Z,39.50
2022-11-26T12:39:53.893Z,42.53
2022-11-26T12:42:53.843Z,48.90
2022-11-26T12:45:35.785Z,45.13
2022-11-26T12:48:40.232Z,44.33
2022-11-26T12:51:06.934Z,45.30
2022-11-26T12:53:36.415Z,40.20
2022-11-26T12:56:21.419Z,43.67
2022-11-26T12:59:10.104Z,36.00
2022-11-26T13:01:37.031Z,37.37
2022-11-26T13:04:35.615Z,39.80
2022-11-26T13:07:10.359Z,45.33
2022-11-26T13:10:10.895Z,39.93
2022-11-26T13:13:02.530Z,41.73
2022-11-26T13:15:43.933Z,47.73
2022-11-26T13:18:24.136Z,44.33
2022-11-26T13:21:14.613Z,34.07
2022-11-26T13:24:25.990Z,38.27
2022-11-26T13:27:01.690Z,46.63
2022-11-26T13:29:56.622Z,47.03
2022-11-26T13:32:26.983Z,44.40
2022-11-26T13:35:21.047Z,44.13
2022-11-26T13:38:25.479Z,48.53
2022-11-26T13:41:10.971Z,42.03
2022-11-26T13:43:58.230Z,37.47
2022-11-26T13:46:33.158Z,31.23
2022-11-26T13:49:06.166Z,40.87
2022-11-26T13:51:35.702Z,43.80
2022-11-26T13:54:31.890Z,36.67
2022-11-26T13:57:05.980Z,35.10
2022-11-26T13:59:33.252Z,41.63
2022-11-26T14:02:36.453Z,38.90
2022-11-26T14:05:14.721Z,57.40
2022-11-26T14:07:42.841Z,46.17
2022-11-26T14:10:35.893Z,40.73
2022-11-26T14:13:02.760Z,47.83
2022-11-26T14:15:41.672Z,33.73
2022-11-26T14:18:13.498Z,46.47
2022-11-26T14:20:59.643Z,53.67
2022-11-26T14:23:44.450Z,49.27
2022-11-26T14:26:14.278Z,41.10
2022-11-26T14:28:41.174Z,38.03
2022-11-26T14:31:14.102Z,34.90
2022-11-26T14:33:45.132Z,46.50
2022-11-26T14:36:27.280Z,53.27
2022-11-26T14:39:05.580Z,39.73
2022-11-26T14:41:41.348Z,43.60
2022-11-26T14:44:11.796Z,52.53
2022-11-26T14:46:40.723Z,38.30
2022-11-26T14:49:34.720Z,39.53
2022-11-26T14:52:04.844Z,40.57
2022-11-26T14:54:38.584Z,40.13
2022-11-26T14:57:11.575Z,41.67
2022-11-26T14:59:55.518Z,43.17
2022-11-26T15:02:23.781Z,46.30
2022-11-26T15:05:02.285Z,32.50
2022-11-26T15:07:30.913Z,40.27
2022-11-26T15:10:23.940Z,38.87
2022-11-26T15:12:52.528Z,35.13
2022-11-26T15:15:21.718Z,47.13
2022-11-26T15:17:56.237Z,38.53
2022-11-26T15:20:23.604Z,42.57
2022-11-26T15:22:56.136Z,40.20
2022-11-26T15:25:39.832Z,40.13
2022-11-26T15:28:18.385Z,44.37
2022-11-26T15:31:00.766Z,35.53
2022-11-26T15:33:29.677Z,43.53
2022-11-26T15:35:57.315Z,39.87
2022-11-26T15:38:29.733Z,41.63
2022-11-26T15:41:19.056Z,48.30
2022-11-26T15:43:58.984Z,28.30
2022-11-26T15:46:32.753Z,33.03
2022-11-26T15:49:07.743Z,31.60
2022-11-26T15:51:42.476Z,30.27
2022-11-26T15:54:30.867Z,32.33
2022-11-26T15:57:10.265Z,33.10
2022-11-26T15:59:45.931Z,35.77
2022-11-26T16:02:26.084Z,31.63
2022-11-26T16:04:53.986Z,30.60
2022-11-26T16:07:23.726Z,53.60
2022-11-26T16:09:52.485Z,30.30
2022-11-26T16:12:31.313Z,34.30
2022-11-26T16:15:18.054Z,34.53
2022-11-26T16:17:45.836Z,30.70
2022-11-26T16:20:25.783Z,29.47
2022-11-26T16:22:56.784Z,23.70
2022-11-26T16:25:27.808Z,25.27
2022-11-26T16:28:06.997Z,31.93
2022-11-26T16:30:34.007Z,27.57
2022-11-26T16:33:00.828Z,37.13
2022-11-26T16:35:45.247Z,30.20
2022-11-26T16:38:24.653Z,35.00
2022-11-26T16:40:51.993Z,42.70
2022-11-26T16:43:19.167Z,32.97
2022-11-26T16:45:47.388Z,31.67
2022-11-26T16:48:32.851Z,29.47
2022-11-26T16:50:59.609Z,22.57
2022-11-26T16:53:26.294Z,28.03
2022-11-26T16:55:53.993Z,26.63
2022-11-26T16:58:28.977Z,24.27
2022-11-26T17:00:56.878Z,30.30
2022-11-26T17:03:24.681Z,37.07
2022-11-26T17:05:56.035Z,26.03
2022-11-26T17:08:23.122Z,26.40
2022-11-26T17:10:51.264Z,26.57
2022-11-26T17:13:18.659Z,36.63
2022-11-26T17:15:45.569Z,27.47
2022-11-26T17:18:23.778Z,22.40
2022-11-26T17:20:52.204Z,25.90
2022-11-26T17:23:19.225Z,22.63
2022-11-26T17:25:50.559Z,26.13
2022-11-26T17:28:17.373Z,25.17
2022-11-26T17:30:44.783Z,23.87
2022-11-26T17:33:11.636Z,24.70
2022-11-26T17:35:39.159Z,25.43
2022-11-26T17:38:15.076Z,23.70
2022-11-26T17:40:42.134Z,27.40
2022-11-26T17:43:09.255Z,22.03
2022-11-26T17:45:36.548Z,30.57
2022-11-26T17:48:03.662Z,21.40
2022-11-26T17:50:31.109Z,27.53
2022-11-26T17:52:57.926Z,19.73
2022-11-26T17:55:26.916Z,24.97
2022-11-26T17:57:55.166Z,24.60
2022-11-26T18:00:28.055Z,27.13
2022-11-26T18:02:55.253Z,34.73
2022-11-26T18:05:22.628Z,30.97
2022-11-26T18:07:50.115Z,28.13
2022-11-26T18:10:18.745Z,28.33
2022-11-26T18:12:45.884Z,24.43
2022-11-26T18:15:24.204Z,21.23
2022-11-26T18:17:52.978Z,22.33
2022-11-26T18:20:22.681Z,24.77
2022-11-26T18:22:54.892Z,31.10
2022-11-26T18:25:22.010Z,26.37
2022-11-26T18:27:48.917Z,24.70
2022-11-26T18:30:16.756Z,24.90
2022-11-26T18:32:43.714Z,30.97
2022-11-26T18:35:10.998Z,19.93
2022-11-26T18:37:39.447Z,33.73
2022-11-26T18:40:08.660Z,30.60
2022-11-26T18:42:37.783Z,33.77
2022-11-26T18:45:07.559Z,32.00
2022-11-26T18:47:34.349Z,32.33
2022-11-26T18:50:01.200Z,29.23
2022-11-26T18:52:27.881Z,46.33
2022-11-26T18:54:54.943Z,22.50
2022-11-26T18:57:21.760Z,34.40
2022-11-26T18:59:50.423Z,23.23
2022-11-26T19:02:17.485Z,28.60
2022-11-26T19:04:44.310Z,19.80
2022-11-26T19:07:12.916Z,28.57
2022-11-26T19:09:39.974Z,25.60
2022-11-26T19:12:07.077Z,26.20
2022-11-26T19:14:33.852Z,24.23
2022-11-26T19:17:00.745Z,26.53
2022-11-26T19:19:28.236Z,26.60
2022-11-26T19:22:00.892Z,20.40
2022-11-26T19:24:29.491Z,29.50
2022-11-26T19:26:56.480Z,26.33
2022-11-26T19:29:23.245Z,15.50
2022-11-26T19:31:50.146Z,21.23
2022-11-26T19:34:17.374Z,20.63
2022-11-26T19:36:48.365Z,26.07
2022-11-26T19:39:16.456Z,21.30
2022-11-26T19:41:43.300Z,24.67
2022-11-26T19:44:10.074Z,21.37
2022-11-26T19:46:40.989Z,20.30
2022-11-26T19:49:10.949Z,26.90
2022-11-26T19:51:37.733Z,29.57
2022-11-26T19:54:05.011Z,25.37
2022-11-26T19:56:32.405Z,22.37
2022-11-26T19:59:02.042Z,32.63
2022-11-26T20:01:31.057Z,30.00
2022-11-26T20:03:59.664Z,23.07
2022-11-26T20:06:27.818Z,28.20
2022-11-26T20:08:55.693Z,20.97
2022-11-26T20:11:23.159Z,26.20
2022-11-26T20:13:50.524Z,17.60
2022-11-26T20:16:23.921Z,19.83
2022-11-26T20:18:51.595Z,27.90
2022-11-26T20:21:21.077Z,34.30
2022-11-26T20:23:49.595Z,17.50
2022-11-26T20:26:43.384Z,33.70
2022-11-26T20:29:12.868Z,21.20
2022-11-26T20:31:45.775Z,21.37
2022-11-26T20:34:18.102Z,26.10
2022-11-26T20:36:45.024Z,39.80
2022-11-26T20:39:20.335Z,27.63
2022-11-26T20:41:47.250Z,21.43
2022-11-26T20:44:14.406Z,31.10
2022-11-26T20:46:41.915Z,21.63
2022-11-26T20:49:11.583Z,22.80
2022-11-26T20:51:38.735Z,26.67
2022-11-26T20:54:05.674Z,17.73
2022-11-26T20:56:33.155Z,18.70
2022-11-26T20:59:01.902Z,20.57
2022-11-26T21:01:30.213Z,26.43
2022-11-26T21:03:58.361Z,36.53
2022-11-26T21:06:30.464Z,21.37
2022-11-26T21:09:02.464Z,35.83
2022-11-26T21:11:29.900Z,29.37
2022-11-26T21:13:58.401Z,23.87
2022-11-26T21:16:25.608Z,26.33
2022-11-26T21:18:54.539Z,22.00
2022-11-26T21:21:21.874Z,21.40
2022-11-26T21:23:48.623Z,33.23
2022-11-26T21:26:17.926Z,19.07
2022-11-26T21:28:44.930Z,22.40
2022-11-26T21:31:14.767Z,22.63
2022-11-26T21:33:41.666Z,22.50
2022-11-26T21:36:10.673Z,27.27
2022-11-26T21:38:37.785Z,38.50
2022-11-26T21:41:06.728Z,33.00
2022-11-26T21:43:33.885Z,25.93
2022-11-26T21:46:05.046Z,30.10
2022-11-26T21:48:32.567Z,30.20
2022-11-26T21:50:59.668Z,30.53
2022-11-26T21:53:26.466Z,28.43
2022-11-26T21:55:53.230Z,23.90
2022-11-26T21:58:20.019Z,31.20
2022-11-26T22:00:46.793Z,28.80
2022-11-26T22:03:13.512Z,28.93
2022-11-26T22:05:41.750Z,28.67
2022-11-26T22:08:08.571Z,33.47
2022-11-26T22:10:36.270Z,32.03
2022-11-26T22:13:03.134Z,28.90
2022-11-26T22:15:29.915Z,25.40
2022-11-26T22:17:57.200Z,32.43
2022-11-26T22:20:24.041Z,24.53
2022-11-26T22:22:50.826Z,28.43
2022-11-26T22:25:17.610Z,30.67
2022-11-26T22:27:44.352Z,28.53
2022-11-26T22:30:11.512Z,30.97
2022-11-26T22:32:38.274Z,29.20
2022-11-26T22:35:05.380Z,24.20
2022-11-26T22:37:32.126Z,31.00
2022-11-26T22:39:58.862Z,23.57
2022-11-26T22:42:25.564Z,23.00
2022-11-26T22:44:52.304Z,37.83
2022-11-26T22:47:19.103Z,21.83
2022-11-26T22:49:46.253Z,23.43
2022-11-26T22:52:13.218Z,27.90
2022-11-26T22:54:39.917Z,28.57
2022-11-26T22:57:07.051Z,28.23
2022-11-26T22:59:33.779Z,33.60
2022-11-26T23:02:00.912Z,31.30
2022-11-26T23:04:28.067Z,31.17
2022-11-26T23:06:54.820Z,38.47
2022-11-26T23:09:21.590Z,33.40
2022-11-26T23:11:48.314Z,42.00
2022-11-26T23:14:15.008Z,33.00
2022-11-26T23:16:43.159Z,42.20
2022-11-26T23:19:13.118Z,37.93
2022-11-26T23:21:42.726Z,52.40
2022-11-26T23:24:09.824Z,51.57
2022-11-26T23:26:38.454Z,43.13
2022-11-26T23:29:06.619Z,41.73
2022-11-26T23:31:36.114Z,52.77
2022-11-26T23:34:03.733Z,44.00
2022-11-26T23:36:31.354Z,37.53
2022-11-26T23:39:01.119Z,43.30
2022-11-26T23:41:28.487Z,46.53
2022-11-26T23:43:55.521Z,46.17
2022-11-26T23:46:25.267Z,44.13
2022-11-26T23:48:52.411Z,49.13
2022-11-26T23:51:22.499Z,39.37
2022-11-26T23:53:50.566Z,47.17
2022-11-26T23:56:23.822Z,45.53
2022-11-26T23:58:52.634Z,57.00
